Main page
METAR-TAF:

METAR-TAF

Airports :

Cape Town, South Africa

Cape Town International Airport

latitude: 33-59S, longitude: 018-36E, elevation: 42 m

Current weather observation

The report was made 19 minutes ago, at 05:00 UTC
Wind 5 kt from the South/Southeast
Temperature 13°C
Humidity 72%
Pressure 1017 hPa
Visibility 10 km or more
no clouds below 1500 m and no cumulonimbus

METAR: FACT 290500Z 15005KT CAVOK 13/08 Q1017 NOSIG

Time: 07:19 (05:19 UTC)

Forecast

The report was made 7 hours and 19 minutes ago, at 22:00 UTC
Forecast valid from 29 at 00 UTC to 30 at 06 UTC
Wind 10 kt from the South/Southeast
Visibility 10 km or more
Few clouds at a height of 3000 ft
Becoming
from 29 at 04 UTC to 29 at 06 UTC
Wind 3 kt from variable directions
From 29 at 1000 UTC
Wind 13 kt from the South
Visibility 10 km or more
no clouds below 1500 m and no cumulonimbus

TAF: FACT 282200Z 2900/3006 15010KT 9999 FEW030 BECMG 2904/2906 VRB03KT FM291000 18013KT CAVOK TX28/2912ZTN15/3004Z

Weather observations and forecasts of more than 4000 airports (METAR and TAF reports).

The available stations are represented by yellow and red dots on the map.

Hover mouse over dot to see the name of the station.

Then click to see weather observations and forecasts.

To change the map : click on the green buttons with a black cross to zoom in, on the green button with a dash to zoom out, or on the green arrows for adjacent maps.


METAR-TAF: